Littlevine, Virginia
Current Conditions -  °F | °C
As of 6:35 AM on Saturday 20 Dec 2014 (Local Time) from KHLX Reporting Station
Overcast Overcast  
Wind Chill: 32°   Ceiling: 4100
Heat Index: 32°   Visibility: 10mi
Dew Point: 24°   Wind: 0mph
Humidity: 74%   Direction: NA
Pressure: 30.17"   Gusts: NA
Location:  36.737°N, 80.6935°W
Report Text: KHLX 201135Z AUTO 00000KT 10SM OVC041 00/M04 A3017 RMK AO2 T10011042
Loading
Personal Weather Stations






























Interactive Weather Map New forecast layout! Learn more

10-Day Weather Forecast

Advertisements
Track Severe Weather on mobile